Time,TemperatureF,DewpointF,PressureIn,WindDirection,WindDirectionDegrees,WindSpeedMPH,WindSpeedGustMPH,Humidity,HourlyPrecipIn,Conditions,Clouds,dailyrainin,SoftwareType,DateUTC
2013-07-28 00:01:00,65.8,56.2,29.94,NW,312,4.5,5.8,71,0.00,RA,,0.00,WeatherDisplay:10.37,2013-07-28 04:01:00,
2013-07-28 00:02:00,65.8,56.2,29.94,NW,312,5.4,5.8,71,0.00,RA,,0.00,WeatherDisplay:10.37,2013-07-28 04:02:00,
2013-07-28 00:07:00,65.7,56.0,29.94,NW,312,4.5,4.7,71,0.00,RA,,0.00,WeatherDisplay:10.37,2013-07-28 04:07:00,
2013-07-28 00:12:00,65.5,55.8,29.94,NNW,335,0.0,4.9,71,0.00,SCT,,0.00,WeatherDisplay:10.37,2013-07-28 04:12:00,
2013-07-28 00:17:00,65.3,55.7,29.94,NNW,335,2.8,3.5,71,0.00,SCT,,0.00,WeatherDisplay:10.37,2013-07-28 04:17:00,
2013-07-28 00:22:00,65.1,55.1,29.94,NW,312,2.7,2.7,70,0.00,SCT,,0.00,WeatherDisplay:10.37,2013-07-28 04:22:00,
2013-07-28 00:27:00,64.9,54.9,29.94,North,357,3.3,3.5,70,0.00,SCT,,0.00,WeatherDisplay:10.37,2013-07-28 04:27:00,
2013-07-28 00:32:00,64.9,54.9,29.95,ENE,65,0.2,5.8,70,0.00,SCT,,0.00,WeatherDisplay:10.37,2013-07-28 04:32:00,
2013-07-28 00:37:00,64.8,54.7,29.95,West,267,2.5,2.5,70,0.00,SCT,,0.00,WeatherDisplay:10.37,2013-07-28 04:37:00,
2013-07-28 00:42:00,64.8,54.7,29.95,WNW,289,3.5,4.6,70,0.00,SCT,,0.00,WeatherDisplay:10.37,2013-07-28 04:42:00,
2013-07-28 00:47:00,64.8,54.7,29.95,NNW,335,7.4,8.1,70,0.00,SCT,,0.00,WeatherDisplay:10.37,2013-07-28 04:47:00,
2013-07-28 00:52:00,64.8,54.7,29.95,NW,312,4.0,5.1,70,0.00,SCT,,0.00,WeatherDisplay:10.37,2013-07-28 04:52:00,
2013-07-28 00:57:00,64.6,54.2,29.96,West,267,6.0,6.0,69,0.00,SCT,,0.00,WeatherDisplay:10.37,2013-07-28 04:57:00,
2013-07-28 01:02:00,64.6,54.2,29.96,WNW,289,6.1,6.1,69,0.00,SCT,,0.00,WeatherDisplay:10.37,2013-07-28 05:02:00,
2013-07-28 01:07:00,64.2,53.8,29.96,NW,312,6.3,6.3,69,0.00,SCT,,0.00,WeatherDisplay:10.37,2013-07-28 05:07:00,
2013-07-28 01:12:00,64.0,53.7,29.96,WNW,289,5.6,5.8,69,0.00,CLR,,0.00,WeatherDisplay:10.37,2013-07-28 05:12:00,
2013-07-28 01:17:00,64.0,53.7,29.97,NW,312,4.3,4.6,69,0.00,CLR,,0.00,WeatherDisplay:10.37,2013-07-28 05:17:00,
2013-07-28 01:22:00,63.5,53.1,29.97,WNW,289,8.9,9.2,69,0.00,CLR,,0.00,WeatherDisplay:10.37,2013-07-28 05:22:00,
2013-07-28 01:27:00,63.1,52.8,29.97,NW,312,6.3,6.9,69,0.00,CLR,,0.00,WeatherDisplay:10.37,2013-07-28 05:27:00,
2013-07-28 01:32:00,63.0,52.6,29.96,NNW,335,0.0,4.6,69,0.00,CLR,,0.00,WeatherDisplay:10.37,2013-07-28 05:32:00,
2013-07-28 01:37:00,62.8,52.1,29.96,NW,312,7.2,7.2,68,0.00,CLR,,0.00,WeatherDisplay:10.37,2013-07-28 05:37:00,
2013-07-28 01:42:00,62.8,52.5,29.96,NNW,335,2.7,2.7,69,0.00,CLR,,0.00,WeatherDisplay:10.37,2013-07-28 05:42:00,
2013-07-28 01:47:00,62.2,51.9,29.96,ESE,109,5.0,5.8,69,0.00,CLR,,0.00,WeatherDisplay:10.37,2013-07-28 05:47:00,
2013-07-28 01:52:00,62.1,51.8,29.96,NW,312,3.1,3.5,69,0.00,CLR,,0.00,WeatherDisplay:10.37,2013-07-28 05:52:00,
2013-07-28 01:57:00,61.9,51.6,29.96,NW,312,2.5,2.5,69,0.00,CLR,,0.00,WeatherDisplay:10.37,2013-07-28 05:57:00,
2013-07-28 02:02:00,61.9,51.6,29.97,NW,312,4.7,5.8,69,0.00,CLR,,0.00,WeatherDisplay:10.37,2013-07-28 06:02:00,
2013-07-28 02:07:00,61.2,51.3,29.97,NNW,335,0.9,1.1,70,0.00,CLR,,0.00,WeatherDisplay:10.37,2013-07-28 06:07:00,
2013-07-28 02:12:00,61.2,51.3,29.97,NNW,335,3.6,3.6,70,0.00,SCT,,0.00,WeatherDisplay:10.37,2013-07-28 06:12:00,
2013-07-28 02:17:00,61.0,51.1,29.97,NNW,335,1.3,3.5,70,0.00,SCT,,0.00,WeatherDisplay:10.37,2013-07-28 06:17:00,
2013-07-28 02:22:00,61.0,51.1,29.97,NW,312,1.8,4.0,70,0.00,SCT,,0.00,WeatherDisplay:10.37,2013-07-28 06:22:00,
2013-07-28 02:27:00,60.4,50.6,29.97,NW,312,4.0,4.0,70,0.00,SCT,,0.00,WeatherDisplay:10.37,2013-07-28 06:27:00,
2013-07-28 02:32:00,60.4,50.6,29.97,North,357,3.9,4.6,70,0.00,SCT,,0.00,WeatherDisplay:10.37,2013-07-28 06:32:00,
2013-07-28 02:37:00,60.4,50.6,29.97,NNW,335,4.1,4.6,70,0.00,SCT,,0.00,WeatherDisplay:10.37,2013-07-28 06:37:00,
2013-07-28 02:42:00,60.4,51.0,29.97,NW,312,0.7,1.1,71,0.00,SCT,,0.00,WeatherDisplay:10.37,2013-07-28 06:42:00,
2013-07-28 02:47:00,59.7,50.3,29.97,NNW,335,1.3,3.5,71,0.00,SCT,,0.00,WeatherDisplay:10.37,2013-07-28 06:47:00,
2013-07-28 02:52:00,59.5,50.1,29.97,West,267,3.0,3.5,71,0.00,SCT,,0.00,WeatherDisplay:10.37,2013-07-28 06:52:00,
2013-07-28 02:57:00,59.4,50.0,29.97,NW,312,2.0,2.0,71,0.00,SCT,,0.00,WeatherDisplay:10.37,2013-07-28 06:57:00,
2013-07-28 03:02:00,59.2,49.8,29.97,WNW,289,0.0,2.3,71,0.00,SCT,,0.00,WeatherDisplay:10.37,2013-07-28 07:02:00,
2013-07-28 03:07:00,58.8,49.8,29.97,NW,312,0.7,1.1,72,0.00,SCT,,0.00,WeatherDisplay:10.37,2013-07-28 07:07:00,
2013-07-28 03:12:00,58.8,49.8,29.97,NNW,335,1.1,1.1,72,0.00,CLR,,0.00,WeatherDisplay:10.37,2013-07-28 07:12:00,
2013-07-28 03:17:00,58.8,49.8,29.97,NW,312,0.0,0.0,72,0.00,CLR,,0.00,WeatherDisplay:10.37,2013-07-28 07:17:00,
2013-07-28 03:22:00,58.6,50.0,29.97,NW,312,1.8,2.3,73,0.00,CLR,,0.00,WeatherDisplay:10.37,2013-07-28 07:22:00,
2013-07-28 03:27:00,58.5,49.8,29.97,West,267,0.0,0.0,73,0.00,CLR,,0.00,WeatherDisplay:10.37,2013-07-28 07:27:00,
2013-07-28 03:32:00,57.9,49.3,29.96,West,267,0.0,0.0,73,0.00,CLR,,0.00,WeatherDisplay:10.37,2013-07-28 07:32:00,
2013-07-28 03:37:00,57.7,49.5,29.97,NNW,335,0.4,1.6,74,0.00,CLR,,0.00,WeatherDisplay:10.37,2013-07-28 07:37:00,
2013-07-28 03:42:00,57.7,49.5,29.96,NNW,335,3.2,4.2,74,0.00,CLR,,0.00,WeatherDisplay:10.37,2013-07-28 07:42:00,
2013-07-28 03:47:00,57.6,49.3,29.97,NW,312,2.5,2.5,74,0.00,CLR,,0.00,WeatherDisplay:10.37,2013-07-28 07:47:00,
2013-07-28 03:52:00,57.6,49.3,29.97,NNW,335,0.8,1.1,74,0.00,CLR,,0.00,WeatherDisplay:10.37,2013-07-28 07:52:00,
2013-07-28 03:57:00,57.6,49.3,29.97,NW,312,2.5,2.5,74,0.00,CLR,,0.00,WeatherDisplay:10.37,2013-07-28 07:57:00,
2013-07-28 04:02:00,57.4,49.2,29.97,NW,312,0.0,0.0,74,0.00,CLR,,0.00,WeatherDisplay:10.37,2013-07-28 08:02:00,
2013-07-28 04:07:00,57.0,48.8,29.97,WNW,289,0.0,0.0,74,0.00,CLR,,0.00,WeatherDisplay:10.37,2013-07-28 08:07:00,
2013-07-28 04:12:00,56.8,48.6,29.98,West,267,0.0,0.0,74,0.00,CLR,,0.00,WeatherDisplay:10.37,2013-07-28 08:12:00,
2013-07-28 04:17:00,56.5,48.6,29.97,WNW,289,0.0,0.0,75,0.00,CLR,,0.00,WeatherDisplay:10.37,2013-07-28 08:17:00,
2013-07-28 04:22:00,56.3,48.5,29.97,West,267,0.0,0.0,75,0.00,CLR,,0.00,WeatherDisplay:10.37,2013-07-28 08:22:00,
2013-07-28 04:27:00,56.1,48.3,29.97,West,267,0.0,0.0,75,0.00,CLR,,0.00,WeatherDisplay:10.37,2013-07-28 08:27:00,
2013-07-28 04:32:00,55.9,48.1,29.98,West,267,0.0,0.0,75,0.00,CLR,,0.00,WeatherDisplay:10.37,2013-07-28 08:32:00,
2013-07-28 04:37:00,55.6,48.5,29.97,West,267,0.0,0.0,77,0.00,CLR,,0.00,WeatherDisplay:10.37,2013-07-28 08:37:00,
2013-07-28 04:42:00,55.4,48.3,29.97,West,267,0.0,0.0,77,0.00,CLR,,0.00,WeatherDisplay:10.37,2013-07-28 08:42:00,
2013-07-28 04:47:00,55.2,48.1,29.97,West,267,0.0,0.0,77,0.00,CLR,,0.00,WeatherDisplay:10.37,2013-07-28 08:47:00,
2013-07-28 04:52:00,55.0,48.0,29.97,WNW,289,0.0,0.0,77,0.00,CLR,,0.00,WeatherDisplay:10.37,2013-07-28 08:52:00,
2013-07-28 04:57:00,55.0,48.0,29.97,WNW,289,0.0,0.0,77,0.00,CLR,,0.00,WeatherDisplay:10.37,2013-07-28 08:57:00,
2013-07-28 05:02:00,54.9,48.1,29.97,WNW,289,0.0,0.0,78,0.00,CLR,,0.00,WeatherDisplay:10.37,2013-07-28 09:02:00,
2013-07-28 05:07:00,54.7,47.6,29.97,West,267,0.0,0.0,77,0.00,CLR,,0.00,WeatherDisplay:10.37,2013-07-28 09:07:00,
2013-07-28 05:12:00,54.5,47.8,29.97,WNW,289,0.0,0.0,78,0.00,CLR,,0.00,WeatherDisplay:10.37,2013-07-28 09:12:00,
2013-07-28 05:17:00,54.3,47.9,29.97,WNW,289,0.0,0.0,79,0.00,CLR,,0.00,WeatherDisplay:10.37,2013-07-28 09:17:00,
2013-07-28 05:22:00,54.3,47.9,29.98,WNW,289,0.8,1.1,79,0.00,CLR,,0.00,WeatherDisplay:10.37,2013-07-28 09:22:00,
2013-07-28 05:27:00,54.3,47.9,29.98,WNW,289,0.0,0.0,79,0.00,CLR,,0.00,WeatherDisplay:10.37,2013-07-28 09:27:00,
2013-07-28 05:32:00,54.0,47.6,29.98,West,267,0.0,0.0,79,0.00,CLR,,0.00,WeatherDisplay:10.37,2013-07-28 09:32:00,
2013-07-28 05:37:00,53.8,47.4,29.98,WNW,289,0.0,0.0,79,0.00,CLR,,0.00,WeatherDisplay:10.37,2013-07-28 09:37:00,
2013-07-28 05:42:00,53.4,47.4,29.98,West,267,0.0,0.0,80,0.00,CLR,,0.00,WeatherDisplay:10.37,2013-07-28 09:42:00,
2013-07-28 05:47:00,53.4,47.4,29.98,NW,312,0.0,0.0,80,0.00,CLR,,0.00,WeatherDisplay:10.37,2013-07-28 09:47:00,
2013-07-28 05:52:00,53.4,47.4,29.98,WNW,289,0.0,0.0,80,0.00,CLR,,0.00,WeatherDisplay:10.37,2013-07-28 09:52:00,
2013-07-28 05:57:00,53.4,47.4,29.98,WNW,289,0.0,0.0,80,0.00,CLR,,0.00,WeatherDisplay:10.37,2013-07-28 09:57:00,
2013-07-28 06:02:00,53.4,47.4,29.99,WNW,289,0.0,0.0,80,0.00,CLR,,0.00,WeatherDisplay:10.37,2013-07-28 10:02:00,
2013-07-28 06:07:00,53.4,47.4,29.99,West,267,0.0,0.0,80,0.00,CLR,,0.00,WeatherDisplay:10.37,2013-07-28 10:07:00,
2013-07-28 06:12:00,53.2,47.2,30.00,WNW,289,0.0,0.0,80,0.00,CLR,,0.00,WeatherDisplay:10.37,2013-07-28 10:12:00,
2013-07-28 06:17:00,53.2,47.2,30.00,WNW,289,0.0,0.0,80,0.00,CLR,,0.00,WeatherDisplay:10.37,2013-07-28 10:17:00,
2013-07-28 06:22:00,52.9,46.9,30.00,WNW,289,0.0,0.0,80,0.00,CLR,,0.00,WeatherDisplay:10.37,2013-07-28 10:22:00,
2013-07-28 06:27:00,52.5,46.5,30.00,WNW,289,0.0,0.0,80,0.00,CLR,,0.00,WeatherDisplay:10.37,2013-07-28 10:27:00,
2013-07-28 06:32:00,52.5,46.9,30.00,WNW,289,0.0,0.0,81,0.00,CLR,,0.00,WeatherDisplay:10.37,2013-07-28 10:32:00,
2013-07-28 06:37:00,52.3,46.7,30.01,WNW,289,0.0,0.0,81,0.00,CLR,,0.00,WeatherDisplay:10.37,2013-07-28 10:37:00,
2013-07-28 06:42:00,52.3,47.0,30.00,WNW,289,0.0,0.0,82,0.00,CLR,,0.00,WeatherDisplay:10.37,2013-07-28 10:42:00,
2013-07-28 06:47:00,52.3,46.7,30.00,WNW,289,0.0,0.0,81,0.00,CLR,,0.00,WeatherDisplay:10.37,2013-07-28 10:47:00,
2013-07-28 06:53:00,52.2,46.8,30.00,NW,312,0.0,0.0,82,0.00,CLR,,0.00,WeatherDisplay:10.37,2013-07-28 10:53:00,
2013-07-28 06:58:00,52.2,46.8,30.01,WNW,289,0.0,0.0,82,0.00,CLR,,0.00,WeatherDisplay:10.37,2013-07-28 10:58:00,
2013-07-28 07:03:00,52.0,46.7,30.01,WNW,289,0.0,0.0,82,0.00,CLR,,0.00,WeatherDisplay:10.37,2013-07-28 11:03:00,
2013-07-28 07:08:00,51.6,46.3,30.01,WNW,289,0.0,0.0,82,0.00,CLR,,0.00,WeatherDisplay:10.37,2013-07-28 11:08:00,
2013-07-28 07:13:00,51.6,46.3,30.01,WNW,289,0.0,0.0,82,0.00,CLR,,0.00,WeatherDisplay:10.37,2013-07-28 11:13:00,
2013-07-28 07:18:00,51.6,46.3,30.01,NW,312,0.0,0.0,82,0.00,CLR,,0.00,WeatherDisplay:10.37,2013-07-28 11:18:00,
2013-07-28 07:23:00,51.6,46.3,30.02,NW,312,0.0,0.0,82,0.00,CLR,,0.00,WeatherDisplay:10.37,2013-07-28 11:23:00,
2013-07-28 07:28:00,51.6,46.3,30.02,WNW,289,0.0,0.0,82,0.00,CLR,,0.00,WeatherDisplay:10.37,2013-07-28 11:28:00,
2013-07-28 07:33:00,52.0,46.7,30.02,NW,312,0.0,0.0,82,0.00,CLR,,0.00,WeatherDisplay:10.37,2013-07-28 11:33:00,
2013-07-28 07:38:00,52.0,46.7,30.02,NW,312,0.0,0.0,82,0.00,CLR,,0.00,WeatherDisplay:10.37,2013-07-28 11:38:00,
2013-07-28 07:43:00,52.2,46.8,30.02,WNW,289,0.0,0.0,82,0.00,CLR,,0.00,WeatherDisplay:10.37,2013-07-28 11:43:00,
2013-07-28 07:48:00,52.3,47.0,30.02,WNW,289,0.0,0.0,82,0.00,CLR,,0.00,WeatherDisplay:10.37,2013-07-28 11:48:00,
2013-07-28 07:53:00,52.3,47.0,30.02,WNW,289,0.0,0.0,82,0.00,CLR,,0.00,WeatherDisplay:10.37,2013-07-28 11:53:00,
2013-07-28 07:58:00,52.5,46.9,30.03,WNW,289,0.0,0.0,81,0.00,CLR,,0.00,WeatherDisplay:10.37,2013-07-28 11:58:00,
2013-07-28 08:03:00,52.7,47.4,30.02,WSW,245,0.0,0.0,82,0.00,CLR,,0.00,WeatherDisplay:10.37,2013-07-28 12:03:00,
2013-07-28 08:08:00,53.2,47.9,30.03,West,267,0.0,0.0,82,0.00,CLR,,0.00,WeatherDisplay:10.37,2013-07-28 12:08:00,
2013-07-28 08:13:00,53.4,48.1,30.02,West,267,0.0,0.0,82,0.00,CLR,,0.00,WeatherDisplay:10.37,2013-07-28 12:13:00,
2013-07-28 08:18:00,54.0,48.6,30.02,WSW,245,0.0,0.0,82,0.00,CLR,,0.00,WeatherDisplay:10.37,2013-07-28 12:18:00,
2013-07-28 08:23:00,54.5,49.1,30.02,WSW,245,0.0,0.0,82,0.00,CLR,,0.00,WeatherDisplay:10.37,2013-07-28 12:23:00,
2013-07-28 08:28:00,55.0,50.0,30.03,WSW,245,0.0,0.0,83,0.00,CLR,,0.00,WeatherDisplay:10.37,2013-07-28 12:28:00,
2013-07-28 08:33:00,56.5,51.1,30.02,SW,222,0.0,0.0,82,0.00,CLR,,0.00,WeatherDisplay:10.37,2013-07-28 12:33:00,
2013-07-28 08:38:00,57.9,52.8,30.02,SW,222,0.0,0.0,83,0.00,CLR,,0.00,WeatherDisplay:10.37,2013-07-28 12:38:00,
2013-07-28 08:43:00,58.8,53.3,30.02,SW,222,0.0,0.0,82,0.00,CLR,,0.00,WeatherDisplay:10.37,2013-07-28 12:43:00,
2013-07-28 08:48:00,60.4,54.2,30.02,SW,222,0.0,0.0,80,0.00,CLR,,0.00,WeatherDisplay:10.37,2013-07-28 12:48:00,
2013-07-28 08:53:00,62.1,55.1,30.02,SW,222,0.0,0.0,78,0.00,CLR,,0.00,WeatherDisplay:10.37,2013-07-28 12:53:00,
2013-07-28 08:58:00,63.1,55.4,30.02,SSW,199,0.0,0.0,76,0.00,CLR,,0.00,WeatherDisplay:10.37,2013-07-28 12:58:00,
2013-07-28 09:03:00,64.2,55.4,30.02,SW,222,0.0,0.0,73,0.00,CLR,,0.00,WeatherDisplay:10.37,2013-07-28 13:03:00,
2013-07-28 09:08:00,65.3,55.7,30.02,South,177,0.0,0.0,71,0.00,CLR,,0.00,WeatherDisplay:10.37,2013-07-28 13:08:00,
2013-07-28 09:13:00,66.0,56.0,30.02,WSW,245,0.0,0.0,70,0.00,CLR,,0.00,WeatherDisplay:10.37,2013-07-28 13:13:00,
2013-07-28 09:18:00,66.9,55.6,30.02,WNW,289,0.0,0.0,67,0.00,CLR,,0.00,WeatherDisplay:10.37,2013-07-28 13:18:00,
2013-07-28 09:23:00,67.6,55.5,30.02,WNW,289,0.0,0.0,65,0.00,CLR,,0.00,WeatherDisplay:10.37,2013-07-28 13:23:00,
2013-07-28 09:28:00,68.4,55.7,30.02,SW,222,1.8,2.3,64,0.00,CLR,,0.00,WeatherDisplay:10.37,2013-07-28 13:28:00,
2013-07-28 09:33:00,69.8,56.6,30.03,SSE,155,0.0,0.0,63,0.00,CLR,,0.00,WeatherDisplay:10.37,2013-07-28 13:33:00,
2013-07-28 09:38:00,70.5,56.9,30.03,West,267,0.0,0.0,62,0.00,CLR,,0.00,WeatherDisplay:10.37,2013-07-28 13:38:00,
2013-07-28 09:43:00,71.2,56.6,30.03,WSW,245,1.1,2.3,60,0.00,CLR,,0.00,WeatherDisplay:10.37,2013-07-28 13:43:00,
2013-07-28 09:48:00,71.2,55.2,30.03,NW,312,2.8,3.5,57,0.00,CLR,,0.00,WeatherDisplay:10.37,2013-07-28 13:48:00,
2013-07-28 09:53:00,71.2,54.2,30.03,NNW,335,1.6,3.5,55,0.00,CLR,,0.00,WeatherDisplay:10.37,2013-07-28 13:53:00,
2013-07-28 09:58:00,70.9,53.4,30.03,North,357,1.6,1.6,54,0.00,CLR,,0.00,WeatherDisplay:10.37,2013-07-28 13:58:00,
2013-07-28 10:03:00,70.5,53.1,30.04,WSW,245,0.0,0.0,54,0.00,CLR,,0.00,WeatherDisplay:10.37,2013-07-28 14:03:00,
2013-07-28 10:08:00,71.2,53.7,30.04,South,177,0.1,1.1,54,0.00,CLR,,0.00,WeatherDisplay:10.37,2013-07-28 14:08:00,
2013-07-28 10:13:00,71.4,53.4,30.04,NW,312,0.0,0.0,53,0.00,CLR,,0.00,WeatherDisplay:10.37,2013-07-28 14:13:00,
2013-07-28 10:18:00,71.4,52.9,30.05,NNW,335,2.2,2.3,52,0.00,CLR,,0.00,WeatherDisplay:10.37,2013-07-28 14:18:00,
2013-07-28 10:23:00,71.1,52.0,30.05,West,267,0.8,3.5,51,0.00,CLR,,0.00,WeatherDisplay:10.37,2013-07-28 14:23:00,
2013-07-28 10:28:00,71.2,52.7,30.05,NNW,335,0.9,1.1,52,0.00,CLR,,0.00,WeatherDisplay:10.37,2013-07-28 14:28:00,
2013-07-28 10:33:00,71.4,52.9,30.05,WNW,289,3.4,3.5,52,0.00,CLR,,0.00,WeatherDisplay:10.37,2013-07-28 14:33:00,
2013-07-28 10:38:00,71.8,53.2,30.05,WSW,245,0.0,2.7,52,0.00,CLR,,0.00,WeatherDisplay:10.37,2013-07-28 14:38:00,
2013-07-28 10:43:00,72.0,52.3,30.05,SSE,155,1.3,1.3,50,0.00,CLR,,0.00,WeatherDisplay:10.37,2013-07-28 14:43:00,
2013-07-28 10:48:00,72.3,52.1,30.05,WNW,289,3.1,7.6,49,0.00,CLR,,0.00,WeatherDisplay:10.37,2013-07-28 14:48:00,
2013-07-28 10:53:00,72.1,51.9,30.05,WNW,289,3.8,3.8,49,0.00,CLR,,0.00,WeatherDisplay:10.37,2013-07-28 14:53:00,
2013-07-28 10:58:00,71.6,53.0,30.05,SSE,155,0.0,0.0,52,0.00,CLR,,0.00,WeatherDisplay:10.37,2013-07-28 14:58:00,
2013-07-28 11:03:00,73.6,55.4,30.05,WSW,245,1.3,1.3,53,0.00,CLR,,0.00,WeatherDisplay:10.37,2013-07-28 15:03:00,
2013-07-28 11:08:00,74.1,53.7,30.06,SW,222,4.2,4.6,49,0.00,CLR,,0.00,WeatherDisplay:10.37,2013-07-28 15:08:00,
2013-07-28 11:13:00,74.1,53.2,30.05,NW,312,6.3,6.3,48,0.00,CLR,,0.00,WeatherDisplay:10.37,2013-07-28 15:13:00,
2013-07-28 11:18:00,73.2,51.8,30.05,WNW,289,3.9,4.0,47,0.00,CLR,,0.00,WeatherDisplay:10.37,2013-07-28 15:18:00,
2013-07-28 11:23:00,72.7,51.3,30.05,West,267,0.7,3.5,47,0.00,CLR,,0.00,WeatherDisplay:10.37,2013-07-28 15:23:00,
2013-07-28 11:28:00,72.7,51.9,30.05,West,267,4.0,4.0,48,0.00,CLR,,0.00,WeatherDisplay:10.37,2013-07-28 15:28:00,
2013-07-28 11:33:00,73.9,54.1,30.05,WSW,245,4.5,5.8,50,0.00,CLR,,0.00,WeatherDisplay:10.37,2013-07-28 15:33:00,
2013-07-28 11:38:00,75.0,55.1,30.05,WSW,245,0.0,0.0,50,0.00,CLR,,0.00,WeatherDisplay:10.37,2013-07-28 15:38:00,
2013-07-28 11:43:00,75.7,55.8,30.05,West,267,7.4,7.4,50,0.00,CLR,,0.00,WeatherDisplay:10.37,2013-07-28 15:43:00,
2013-07-28 11:48:00,75.4,54.9,30.05,SSW,199,3.0,3.5,49,0.00,CLR,,0.00,WeatherDisplay:10.37,2013-07-28 15:48:00,
2013-07-28 11:53:00,75.6,53.9,30.05,WSW,245,4.9,5.8,47,0.00,CLR,,0.00,WeatherDisplay:10.37,2013-07-28 15:53:00,
2013-07-28 11:58:00,75.4,55.4,30.05,ESE,109,0.0,0.0,50,0.00,CLR,,0.00,WeatherDisplay:10.37,2013-07-28 15:58:00,
2013-07-28 12:03:00,74.5,52.3,30.05,WNW,289,4.8,4.8,46,0.00,CLR,,0.00,WeatherDisplay:10.37,2013-07-28 16:03:00,
2013-07-28 12:08:00,73.9,52.4,30.05,North,357,4.3,4.6,47,0.00,CLR,,0.00,WeatherDisplay:10.37,2013-07-28 16:08:00,
2013-07-28 12:13:00,73.9,53.0,30.04,West,267,0.7,1.1,48,0.00,CLR,,0.00,WeatherDisplay:10.37,2013-07-28 16:13:00,
2013-07-28 12:18:00,74.1,51.4,30.04,NNW,335,5.5,5.5,45,0.00,CLR,,0.00,WeatherDisplay:10.37,2013-07-28 16:18:00,
2013-07-28 12:23:00,73.9,53.0,30.05,West,267,0.0,0.0,48,0.00,CLR,,0.00,WeatherDisplay:10.37,2013-07-28 16:23:00,
2013-07-28 12:28:00,74.1,50.8,30.05,NW,312,4.2,4.6,44,0.00,CLR,,0.00,WeatherDisplay:10.37,2013-07-28 16:28:00,
2013-07-28 12:33:00,73.6,52.1,30.04,NE,42,0.0,0.0,47,0.00,CLR,,0.00,WeatherDisplay:10.37,2013-07-28 16:33:00,
2013-07-28 12:38:00,73.9,51.8,30.04,WNW,289,3.6,3.6,46,0.00,CLR,,0.00,WeatherDisplay:10.37,2013-07-28 16:38:00,
2013-07-28 12:43:00,73.6,51.5,30.04,SW,222,2.2,2.3,46,0.00,CLR,,0.00,WeatherDisplay:10.37,2013-07-28 16:43:00,
2013-07-28 12:48:00,74.5,52.9,30.04,SW,222,4.8,5.8,47,0.00,CLR,,0.00,WeatherDisplay:10.37,2013-07-28 16:48:00,
2013-07-28 12:53:00,74.8,52.7,30.03,WSW,245,5.0,5.1,46,0.00,CLR,,0.00,WeatherDisplay:10.37,2013-07-28 16:53:00,
2013-07-28 12:58:00,74.5,52.9,30.03,WNW,289,0.0,0.0,47,0.00,CLR,,0.00,WeatherDisplay:10.37,2013-07-28 16:58:00,
2013-07-28 13:03:00,74.1,51.4,30.03,NNW,335,5.7,6.9,45,0.00,CLR,,0.00,WeatherDisplay:10.37,2013-07-28 17:03:00,
2013-07-28 13:08:00,73.9,51.8,30.03,West,267,1.1,4.6,46,0.00,CLR,,0.00,WeatherDisplay:10.37,2013-07-28 17:08:00,
2013-07-28 13:13:00,74.5,52.9,30.03,East,87,0.0,0.0,47,0.00,CLR,,0.00,WeatherDisplay:10.37,2013-07-28 17:13:00,
2013-07-28 13:18:00,76.3,55.1,30.04,SW,222,2.5,3.5,48,0.00,CLR,,0.00,WeatherDisplay:10.37,2013-07-28 17:18:00,
2013-07-28 13:23:00,76.8,53.9,30.04,WSW,245,6.3,6.9,45,0.00,CLR,,0.00,WeatherDisplay:10.37,2013-07-28 17:23:00,
2013-07-28 13:28:00,76.8,55.1,30.04,WSW,245,3.1,3.5,47,0.00,CLR,,0.00,WeatherDisplay:10.37,2013-07-28 17:28:00,
2013-07-28 13:33:00,78.4,56.5,30.03,WNW,289,2.5,4.7,47,0.00,CLR,,0.00,WeatherDisplay:10.37,2013-07-28 17:33:00,
2013-07-28 13:38:00,77.5,53.3,30.03,NNW,335,2.5,6.9,43,0.00,CLR,,0.00,WeatherDisplay:10.37,2013-07-28 17:38:00,
2013-07-28 13:43:00,76.6,52.5,30.03,NNE,19,2.9,3.5,43,0.00,CLR,,0.00,WeatherDisplay:10.37,2013-07-28 17:43:00,
2013-07-28 13:48:00,76.8,53.9,30.03,SE,132,0.9,1.1,45,0.00,CLR,,0.00,WeatherDisplay:10.37,2013-07-28 17:48:00,
2013-07-28 13:53:00,77.9,55.5,30.03,SW,222,0.0,0.0,46,0.00,CLR,,0.00,WeatherDisplay:10.37,2013-07-28 17:53:00,
2013-07-28 13:58:00,79.0,57.0,30.03,West,267,8.3,8.3,47,0.00,CLR,,0.00,WeatherDisplay:10.37,2013-07-28 17:58:00,
2013-07-28 14:03:00,80.2,58.2,30.02,SE,132,0.6,1.1,47,0.00,CLR,,0.00,WeatherDisplay:10.37,2013-07-28 18:03:00,
2013-07-28 14:08:00,80.8,57.5,30.03,West,267,3.1,3.5,45,0.00,CLR,,0.00,WeatherDisplay:10.37,2013-07-28 18:08:00,
2013-07-28 14:13:00,79.9,56.0,30.03,SW,222,1.6,2.0,44,0.00,CLR,,0.00,WeatherDisplay:10.37,2013-07-28 18:13:00,
2013-07-28 14:18:00,79.5,55.7,30.03,NW,312,3.3,4.6,44,0.00,CLR,,0.00,WeatherDisplay:10.37,2013-07-28 18:18:00,
2013-07-28 14:23:00,79.5,55.1,30.03,WSW,245,5.4,5.8,43,0.00,CLR,,0.00,WeatherDisplay:10.37,2013-07-28 18:23:00,
2013-07-28 14:28:00,79.5,56.9,30.03,South,177,7.8,8.1,46,0.00,CLR,,0.00,WeatherDisplay:10.37,2013-07-28 18:28:00,
2013-07-28 14:33:00,80.4,55.2,30.02,NNW,335,1.0,2.3,42,0.00,CLR,,0.00,WeatherDisplay:10.37,2013-07-28 18:33:00,
2013-07-28 14:38:00,79.9,55.4,30.02,WNW,289,2.2,2.3,43,0.00,CLR,,0.00,WeatherDisplay:10.37,2013-07-28 18:38:00,
2013-07-28 14:43:00,79.0,54.6,30.02,NW,312,5.8,5.8,43,0.00,CLR,,0.00,WeatherDisplay:10.37,2013-07-28 18:43:00,
2013-07-28 14:48:00,79.2,54.7,30.01,SW,222,5.1,5.1,43,0.00,CLR,,0.00,WeatherDisplay:10.37,2013-07-28 18:48:00,
2013-07-28 14:53:00,79.0,54.6,30.02,NE,42,0.0,4.6,43,0.00,CLR,,0.00,WeatherDisplay:10.37,2013-07-28 18:53:00,
2013-07-28 14:58:00,78.4,54.7,30.01,SSW,199,1.6,2.3,44,0.00,CLR,,0.00,WeatherDisplay:10.37,2013-07-28 18:58:00,
2013-07-28 15:03:00,77.9,53.6,30.01,NW,312,8.6,10.5,43,0.00,CLR,,0.00,WeatherDisplay:10.37,2013-07-28 19:03:00,
2013-07-28 15:08:00,76.8,52.6,30.01,NW,312,3.8,4.6,43,0.00,CLR,,0.00,WeatherDisplay:10.37,2013-07-28 19:08:00,
2013-07-28 15:13:00,76.8,54.5,30.01,WSW,245,2.8,3.5,46,0.00,CLR,,0.00,WeatherDisplay:10.37,2013-07-28 19:13:00,
2013-07-28 15:18:00,77.7,54.7,30.01,NW,312,7.3,8.1,45,0.00,CLR,,0.00,WeatherDisplay:10.37,2013-07-28 19:18:00,
2013-07-28 15:23:00,77.7,53.4,30.01,WSW,245,0.0,0.0,43,0.00,CLR,,0.00,WeatherDisplay:10.37,2013-07-28 19:23:00,
2013-07-28 15:28:00,77.5,53.9,30.01,WSW,245,4.0,4.0,44,0.00,CLR,,0.00,WeatherDisplay:10.37,2013-07-28 19:28:00,
2013-07-28 15:33:00,78.4,55.9,30.01,West,267,3.9,4.6,46,0.00,CLR,,0.00,WeatherDisplay:10.37,2013-07-28 19:33:00,
2013-07-28 15:38:00,79.3,55.5,30.01,WNW,289,3.6,3.6,44,0.00,CLR,,0.00,WeatherDisplay:10.37,2013-07-28 19:38:00,
2013-07-28 15:43:00,79.0,53.9,30.01,NW,312,3.1,3.5,42,0.00,CLR,,0.00,WeatherDisplay:10.37,2013-07-28 19:43:00,
2013-07-28 15:48:00,78.4,53.4,30.01,NW,312,2.9,4.6,42,0.00,CLR,,0.00,WeatherDisplay:10.37,2013-07-28 19:48:00,
2013-07-28 15:53:00,78.4,55.3,30.01,SW,222,6.9,6.9,45,0.00,CLR,,0.00,WeatherDisplay:10.37,2013-07-28 19:53:00,
2013-07-28 15:58:00,79.9,57.3,30.01,SSW,199,2.5,4.9,46,0.00,CLR,,0.00,WeatherDisplay:10.37,2013-07-28 19:58:00,
2013-07-28 16:03:00,80.8,57.5,30.01,West,267,6.3,6.3,45,0.00,CLR,,0.00,WeatherDisplay:10.37,2013-07-28 20:03:00,
2013-07-28 16:08:00,81.0,55.7,30.01,West,267,4.9,4.9,42,0.00,CLR,,0.00,WeatherDisplay:10.37,2013-07-28 20:08:00,
2013-07-28 16:13:00,81.0,55.7,30.01,SW,222,1.1,1.1,42,0.00,CLR,,0.00,WeatherDisplay:10.37,2013-07-28 20:13:00,
2013-07-28 16:18:00,80.8,56.2,30.00,WSW,245,3.3,4.0,43,0.00,CLR,,0.00,WeatherDisplay:10.37,2013-07-28 20:18:00,
2013-07-28 16:23:00,81.1,55.9,30.01,SSW,199,0.0,0.0,42,0.00,CLR,,0.00,WeatherDisplay:10.37,2013-07-28 20:23:00,
2013-07-28 16:28:00,81.1,55.9,30.00,SW,222,2.5,2.7,42,0.00,CLR,,0.00,WeatherDisplay:10.37,2013-07-28 20:28:00,
2013-07-28 16:33:00,80.4,55.2,30.00,SW,222,2.7,4.6,42,0.00,CLR,,0.00,WeatherDisplay:10.37,2013-07-28 20:33:00,
2013-07-28 16:38:00,80.4,55.2,30.00,West,267,0.9,1.1,42,0.00,CLR,,0.00,WeatherDisplay:10.37,2013-07-28 20:38:00,
2013-07-28 16:43:00,79.9,55.4,30.00,WSW,245,2.7,4.5,43,0.00,CLR,,0.00,WeatherDisplay:10.37,2013-07-28 20:43:00,
2013-07-28 16:48:00,79.5,54.4,30.00,WSW,245,4.6,4.7,42,0.00,CLR,,0.00,WeatherDisplay:10.37,2013-07-28 20:48:00,
2013-07-28 16:53:00,79.5,55.1,30.00,WNW,289,2.9,3.5,43,0.00,CLR,,0.00,WeatherDisplay:10.37,2013-07-28 20:53:00,
2013-07-28 16:58:00,79.7,55.9,30.00,SSW,199,2.5,4.6,44,0.00,CLR,,0.00,WeatherDisplay:10.37,2013-07-28 20:58:00,
2013-07-28 17:03:00,79.3,54.3,30.00,NW,312,2.8,3.5,42,0.00,CLR,,0.00,WeatherDisplay:10.37,2013-07-28 21:03:00,
2013-07-28 17:08:00,79.0,54.6,30.01,SW,222,2.5,2.5,43,0.00,FEW,,0.00,WeatherDisplay:10.37,2013-07-28 21:08:00,
2013-07-28 17:13:00,79.0,53.9,30.01,West,267,5.0,5.8,42,0.00,FEW,,0.00,WeatherDisplay:10.37,2013-07-28 21:13:00,
2013-07-28 17:18:00,78.6,54.9,30.01,SSE,155,4.2,8.1,44,0.00,FEW,,0.00,WeatherDisplay:10.37,2013-07-28 21:18:00,
2013-07-28 17:23:00,78.6,54.9,30.01,South,177,0.0,0.0,44,0.00,FEW,,0.00,WeatherDisplay:10.37,2013-07-28 21:23:00,
2013-07-28 17:28:00,79.0,55.2,30.01,SW,222,2.8,3.8,44,0.00,FEW,,0.00,WeatherDisplay:10.37,2013-07-28 21:28:00,
2013-07-28 17:33:00,78.8,55.0,30.01,WSW,245,3.1,5.8,44,0.00,FEW,,0.00,WeatherDisplay:10.37,2013-07-28 21:33:00,
2013-07-28 17:38:00,78.6,54.9,30.01,SW,222,3.9,5.8,44,0.00,FEW,,0.00,WeatherDisplay:10.37,2013-07-28 21:38:00,
2013-07-28 17:43:00,78.6,54.9,30.01,SW,222,2.9,3.5,44,0.00,FEW,,0.00,WeatherDisplay:10.37,2013-07-28 21:43:00,
2013-07-28 17:48:00,79.0,55.2,30.01,West,267,0.7,2.3,44,0.00,FEW,,0.00,WeatherDisplay:10.37,2013-07-28 21:48:00,
2013-07-28 17:53:00,79.0,55.2,30.01,West,267,0.2,3.4,44,0.00,FEW,,0.00,WeatherDisplay:10.37,2013-07-28 21:53:00,
2013-07-28 17:58:00,78.4,55.3,30.01,West,267,3.0,3.6,45,0.00,FEW,,0.00,WeatherDisplay:10.37,2013-07-28 21:58:00,
2013-07-28 18:03:00,78.6,55.5,30.01,West,267,5.1,8.1,45,0.00,FEW,,0.00,WeatherDisplay:10.37,2013-07-28 22:03:00,
2013-07-28 18:08:00,78.1,54.4,30.01,West,267,5.7,5.8,44,0.00,FEW,,0.00,WeatherDisplay:10.37,2013-07-28 22:08:00,
2013-07-28 18:13:00,77.4,54.4,30.01,SSW,199,3.0,3.4,45,0.00,FEW,,0.00,WeatherDisplay:10.37,2013-07-28 22:13:00,
2013-07-28 18:18:00,77.5,54.5,30.01,WSW,245,2.5,2.5,45,0.00,FEW,,0.00,WeatherDisplay:10.37,2013-07-28 22:18:00,
2013-07-28 18:23:00,77.5,54.5,30.01,West,267,3.1,4.9,45,0.00,FEW,,0.00,WeatherDisplay:10.37,2013-07-28 22:23:00,
2013-07-28 18:28:00,76.8,53.3,30.01,WNW,289,3.0,3.5,44,0.00,FEW,,0.00,WeatherDisplay:10.37,2013-07-28 22:28:00,
2013-07-28 18:33:00,76.6,53.7,30.01,South,177,3.1,3.5,45,0.00,FEW,,0.00,WeatherDisplay:10.37,2013-07-28 22:33:00,
2013-07-28 18:38:00,76.3,53.4,30.01,WNW,289,0.0,0.0,45,0.00,FEW,,0.00,WeatherDisplay:10.37,2013-07-28 22:38:00,
2013-07-28 18:43:00,76.1,54.4,30.01,SSW,199,3.9,4.2,47,0.00,FEW,,0.00,WeatherDisplay:10.37,2013-07-28 22:43:00,
2013-07-28 18:48:00,76.3,54.6,30.01,SW,222,2.5,3.5,47,0.00,FEW,,0.00,WeatherDisplay:10.37,2013-07-28 22:48:00,
2013-07-28 18:53:00,76.6,54.3,30.01,WNW,289,4.7,4.7,46,0.00,FEW,,0.00,WeatherDisplay:10.37,2013-07-28 22:53:00,
2013-07-28 18:58:00,76.5,53.5,30.01,West,267,2.5,3.5,45,0.00,FEW,,0.00,WeatherDisplay:10.37,2013-07-28 22:58:00,
2013-07-28 19:03:00,76.1,53.8,30.02,WSW,245,2.2,2.7,46,0.00,FEW,,0.00,WeatherDisplay:10.37,2013-07-28 23:03:00,
2013-07-28 19:08:00,75.9,53.6,30.01,West,267,2.0,2.5,46,0.00,CLR,,0.00,WeatherDisplay:10.37,2013-07-28 23:08:00,
2013-07-28 19:13:00,75.7,53.5,30.02,WSW,245,2.8,3.4,46,0.00,CLR,,0.00,WeatherDisplay:10.37,2013-07-28 23:13:00,
2013-07-28 19:18:00,75.4,53.2,30.02,WSW,245,1.3,3.5,46,0.00,CLR,,0.00,WeatherDisplay:10.37,2013-07-28 23:18:00,
2013-07-28 19:23:00,75.2,53.0,30.02,SW,222,2.9,3.5,46,0.00,CLR,,0.00,WeatherDisplay:10.37,2013-07-28 23:23:00,
2013-07-28 19:28:00,74.8,52.7,30.02,West,267,2.7,3.5,46,0.00,CLR,,0.00,WeatherDisplay:10.37,2013-07-28 23:28:00,
2013-07-28 19:33:00,74.5,52.3,30.02,West,267,3.8,3.8,46,0.00,CLR,,0.00,WeatherDisplay:10.37,2013-07-28 23:33:00,
2013-07-28 19:38:00,74.3,52.8,30.02,WSW,245,6.0,6.0,47,0.00,CLR,,0.00,WeatherDisplay:10.37,2013-07-28 23:38:00,
2013-07-28 19:43:00,74.1,53.2,30.03,WNW,289,0.3,3.5,48,0.00,CLR,,0.00,WeatherDisplay:10.37,2013-07-28 23:43:00,
2013-07-28 19:48:00,74.1,53.2,30.03,WSW,245,1.1,3.5,48,0.00,CLR,,0.00,WeatherDisplay:10.37,2013-07-28 23:48:00,
2013-07-28 19:53:00,73.4,52.5,30.03,WNW,289,2.4,5.8,48,0.00,CLR,,0.00,WeatherDisplay:10.37,2013-07-28 23:53:00,
2013-07-28 19:58:00,73.2,52.9,30.03,West,267,1.1,2.3,49,0.00,CLR,,0.00,WeatherDisplay:10.37,2013-07-28 23:58:00,
2013-07-28 20:03:00,73.0,52.7,30.03,West,267,3.1,3.5,49,0.00,CLR,,0.00,WeatherDisplay:10.37,2013-07-29 00:03:00,
2013-07-28 20:08:00,72.7,53.0,30.04,West,267,1.8,2.3,50,0.00,CLR,,0.00,WeatherDisplay:10.37,2013-07-29 00:08:00,
2013-07-28 20:13:00,72.5,53.3,30.03,WNW,289,1.3,1.3,51,0.00,CLR,,0.00,WeatherDisplay:10.37,2013-07-29 00:13:00,
2013-07-28 20:18:00,72.3,53.2,30.04,SW,222,0.0,0.0,51,0.00,CLR,,0.00,WeatherDisplay:10.37,2013-07-29 00:18:00,
2013-07-28 20:23:00,72.1,53.5,30.05,NW,312,0.2,0.9,52,0.00,CLR,,0.00,WeatherDisplay:10.37,2013-07-29 00:23:00,
2013-07-28 20:28:00,71.8,53.2,30.04,WNW,289,0.0,2.3,52,0.00,CLR,,0.00,WeatherDisplay:10.37,2013-07-29 00:28:00,
2013-07-28 20:33:00,71.4,52.9,30.04,WNW,289,1.3,1.3,52,0.00,CLR,,0.00,WeatherDisplay:10.37,2013-07-29 00:33:00,
2013-07-28 20:38:00,71.2,53.2,30.04,WNW,289,0.0,0.0,53,0.00,CLR,,0.00,WeatherDisplay:10.37,2013-07-29 00:38:00,
2013-07-28 20:43:00,70.5,53.1,30.05,NW,312,0.0,1.1,54,0.00,CLR,,0.00,WeatherDisplay:10.37,2013-07-29 00:43:00,
2013-07-28 20:48:00,70.3,52.9,30.05,WNW,289,0.0,0.0,54,0.00,CLR,,0.00,WeatherDisplay:10.37,2013-07-29 00:48:00,
2013-07-28 20:53:00,69.8,52.9,30.05,NW,312,0.0,0.0,55,0.00,CLR,,0.00,WeatherDisplay:10.37,2013-07-29 00:53:00,
2013-07-28 20:58:00,69.4,52.6,30.05,WNW,289,0.0,0.0,55,0.00,CLR,,0.00,WeatherDisplay:10.37,2013-07-29 00:58:00,
2013-07-28 21:03:00,69.1,52.2,30.05,NW,312,0.0,0.0,55,0.00,CLR,,0.00,WeatherDisplay:10.37,2013-07-29 01:03:00,
2013-07-28 21:08:00,68.5,52.2,30.04,NW,312,0.0,0.0,56,0.00,CLR,,0.00,WeatherDisplay:10.37,2013-07-29 01:08:00,
2013-07-28 21:13:00,68.4,52.0,30.05,NW,312,0.0,0.0,56,0.00,CLR,,0.00,WeatherDisplay:10.37,2013-07-29 01:13:00,
2013-07-28 21:20:00,67.8,52.0,30.04,NW,312,1.7,2.0,57,0.00,CLR,,0.00,WeatherDisplay:10.37,2013-07-29 01:20:00,
2013-07-28 21:25:00,67.6,51.9,30.04,NW,312,0.0,0.0,57,0.00,CLR,,0.00,WeatherDisplay:10.37,2013-07-29 01:25:00,
2013-07-28 21:30:00,67.4,51.7,30.05,NW,316,0.0,0.0,57,0.00,CLR,,0.00,WeatherDisplay:10.37,2013-07-29 01:30:00,
2013-07-28 21:35:00,67.1,51.8,30.05,NW,312,0.0,0.0,58,0.00,CLR,,0.00,WeatherDisplay:10.37,2013-07-29 01:35:00,
2013-07-28 21:41:00,66.7,52.0,30.05,NW,312,0.0,0.0,59,0.00,CLR,,0.00,WeatherDisplay:10.37,2013-07-29 01:41:00,
2013-07-28 21:47:00,66.7,52.0,30.05,NW,312,0.0,0.0,59,0.00,CLR,,0.00,WeatherDisplay:10.37,2013-07-29 01:47:00,
2013-07-28 21:52:00,66.4,51.6,30.05,NNW,335,0.0,0.0,59,0.00,CLR,,0.00,WeatherDisplay:10.37,2013-07-29 01:52:00,
2013-07-28 21:57:00,66.2,51.4,30.05,NNE,19,0.0,0.0,59,0.00,CLR,,0.00,WeatherDisplay:10.37,2013-07-29 01:57:00,
2013-07-28 22:02:00,66.0,51.7,30.05,NNW,335,0.0,0.0,60,0.00,CLR,,0.00,WeatherDisplay:10.37,2013-07-29 02:02:00,
2013-07-28 22:07:00,65.8,51.6,30.06,North,357,0.0,0.0,60,0.00,CLR,,0.00,WeatherDisplay:10.37,2013-07-29 02:07:00,
2013-07-28 22:12:00,65.5,51.2,30.06,NNW,335,0.0,0.0,60,0.00,CLR,,0.00,WeatherDisplay:10.37,2013-07-29 02:12:00,
2013-07-28 22:17:00,65.1,51.3,30.06,NNW,335,0.0,0.0,61,0.00,CLR,,0.00,WeatherDisplay:10.37,2013-07-29 02:17:00,
2013-07-28 22:23:00,64.6,50.8,30.06,West,267,0.0,0.0,61,0.00,CLR,,0.00,WeatherDisplay:10.37,2013-07-29 02:23:00,
2013-07-28 22:28:00,64.2,51.4,30.06,WNW,289,0.0,0.0,63,0.00,CLR,,0.00,WeatherDisplay:10.37,2013-07-29 02:28:00,
2013-07-28 22:33:00,64.0,51.2,30.07,WNW,289,0.0,0.0,63,0.00,CLR,,0.00,WeatherDisplay:10.37,2013-07-29 02:33:00,
2013-07-28 22:38:00,63.5,51.1,30.06,WNW,289,0.0,0.0,64,0.00,CLR,,0.00,WeatherDisplay:10.37,2013-07-29 02:38:00,
2013-07-28 22:43:00,63.3,50.9,30.06,WNW,289,0.0,0.0,64,0.00,CLR,,0.00,WeatherDisplay:10.37,2013-07-29 02:43:00,
2013-07-28 22:49:00,63.1,50.8,30.07,WNW,289,0.0,0.0,64,0.00,CLR,,0.00,WeatherDisplay:10.37,2013-07-29 02:49:00,
2013-07-28 22:54:00,62.8,50.8,30.07,WNW,289,0.0,0.0,65,0.00,CLR,,0.00,WeatherDisplay:10.37,2013-07-29 02:54:00,
2013-07-28 23:00:00,62.4,50.9,30.07,WNW,289,0.0,0.0,66,0.00,CLR,,0.00,WeatherDisplay:10.37,2013-07-29 03:00:00,
2013-07-28 23:05:00,62.4,51.3,30.07,WNW,289,0.0,0.0,67,0.00,CLR,,0.00,WeatherDisplay:10.37,2013-07-29 03:05:00,
2013-07-28 23:10:00,62.2,51.1,30.07,NW,312,0.0,0.0,67,0.00,CLR,,0.00,WeatherDisplay:10.37,2013-07-29 03:10:00,
2013-07-28 23:15:00,61.9,50.8,30.07,WNW,289,0.0,0.0,67,0.00,CLR,,0.00,WeatherDisplay:10.37,2013-07-29 03:15:00,
2013-07-28 23:20:00,61.9,50.8,30.07,WNW,289,0.0,0.0,67,0.00,CLR,,0.00,WeatherDisplay:10.37,2013-07-29 03:20:00,
2013-07-28 23:25:00,61.5,50.5,30.07,WNW,289,0.0,0.0,67,0.00,CLR,,0.00,WeatherDisplay:10.37,2013-07-29 03:25:00,
2013-07-28 23:30:00,61.3,50.3,30.07,WNW,289,0.0,0.0,67,0.00,CLR,,0.00,WeatherDisplay:10.37,2013-07-29 03:30:00,
2013-07-28 23:35:00,61.3,50.3,30.07,WNW,289,0.0,0.0,67,0.00,CLR,,0.00,WeatherDisplay:10.37,2013-07-29 03:35:00,
2013-07-28 23:40:00,61.0,49.9,30.07,WNW,289,0.0,0.0,67,0.00,CLR,,0.00,WeatherDisplay:10.37,2013-07-29 03:40:00,
2013-07-28 23:45:00,60.6,50.0,30.07,WNW,289,0.0,0.0,68,0.00,CLR,,0.00,WeatherDisplay:10.37,2013-07-29 03:45:00,
2013-07-28 23:51:00,60.6,50.0,30.07,WNW,289,0.0,0.0,68,0.00,CLR,,0.00,WeatherDisplay:10.37,2013-07-29 03:51:00,
2013-07-28 23:57:00,60.1,49.5,30.07,WNW,289,0.0,0.0,68,0.00,CLR,,0.00,WeatherDisplay:10.37,2013-07-29 03:57:00,